Lindale, Georgia
Current Conditions -  °F | °C
As of 7:53 PM on Tuesday 27 Jan 2015 (Local Time) from KRMG Reporting Station
Clear Clear  
Wind Chill: 35°   Ceiling: Unl
Heat Index: 41°   Visibility: 10mi
Dew Point: 29°   Wind: 10mph
Humidity: 62%   Direction: 350°N
Pressure: 30.11"   Gusts: 24mph
Location:  34.19°N, 85.17°W
Report Text: KRMG 280053Z AUTO 35009G21KT 10SM CLR 05/M02 A3011 RMK AO2 SLP195 T00501017
Loading
Personal Weather Stations






























Interactive Weather Map New forecast layout! Learn more

10-Day Weather Forecast

Advertisements
Track Severe Weather on mobile